sensor_id;sensor_type;location;lat;lon;timestamp;pressure;altitude;pressure_sealevel;temperature;humidity
15050;BME280;7622;42.724;23.250;2023-04-29T00:00:42;94750.66;;;7.37;100.00
15050;BME280;7622;42.724;23.250;2023-04-29T00:03:09;94754.00;;;7.49;100.00
15050;BME280;7622;42.724;23.250;2023-04-29T00:05:36;94752.03;;;7.41;100.00
15050;BME280;7622;42.724;23.250;2023-04-29T00:08:04;94754.16;;;7.36;100.00
15050;BME280;7622;42.724;23.250;2023-04-29T00:10:30;94755.97;;;7.25;100.00
15050;BME280;7622;42.724;23.250;2023-04-29T00:12:57;94762.19;;;7.22;100.00
15050;BME280;7622;42.724;23.250;2023-04-29T00:15:25;94762.53;;;7.29;100.00
15050;BME280;7622;42.724;23.250;2023-04-29T00:17:52;94749.81;;;7.37;100.00
15050;BME280;7622;42.724;23.250;2023-04-29T00:20:19;94764.72;;;7.33;100.00
15050;BME280;7622;42.724;23.250;2023-04-29T00:22:46;94760.47;;;7.11;100.00
15050;BME280;7622;42.724;23.250;2023-04-29T00:25:13;94764.53;;;7.25;100.00
15050;BME280;7622;42.724;23.250;2023-04-29T00:27:41;94756.91;;;7.24;100.00
15050;BME280;7622;42.724;23.250;2023-04-29T00:30:08;94754.28;;;7.46;100.00
15050;BME280;7622;42.724;23.250;2023-04-29T00:32:37;94765.47;;;7.24;100.00
15050;BME280;7622;42.724;23.250;2023-04-29T00:35:04;94762.81;;;7.03;100.00
15050;BME280;7622;42.724;23.250;2023-04-29T00:37:31;94765.63;;;7.11;100.00
15050;BME280;7622;42.724;23.250;2023-04-29T00:39:58;94761.28;;;7.12;100.00
15050;BME280;7622;42.724;23.250;2023-04-29T00:42:26;94753.06;;;7.07;100.00
15050;BME280;7622;42.724;23.250;2023-04-29T00:44:53;94761.72;;;7.06;100.00
15050;BME280;7622;42.724;23.250;2023-04-29T00:47:20;94755.50;;;7.20;100.00
15050;BME280;7622;42.724;23.250;2023-04-29T00:49:48;94755.84;;;7.15;100.00
15050;BME280;7622;42.724;23.250;2023-04-29T00:52:15;94747.19;;;7.16;100.00
15050;BME280;7622;42.724;23.250;2023-04-29T00:54:43;94749.63;;;7.18;100.00
15050;BME280;7622;42.724;23.250;2023-04-29T00:57:10;94738.53;;;6.95;100.00
15050;BME280;7622;42.724;23.250;2023-04-29T00:59:36;94736.84;;;7.16;100.00
15050;BME280;7622;42.724;23.250;2023-04-29T01:02:03;94738.78;;;6.81;100.00
15050;BME280;7622;42.724;23.250;2023-04-29T01:04:30;94726.53;;;6.94;100.00
15050;BME280;7622;42.724;23.250;2023-04-29T01:07:03;94725.38;;;6.87;100.00
15050;BME280;7622;42.724;23.250;2023-04-29T01:09:49;94730.91;;;6.82;100.00
15050;BME280;7622;42.724;23.250;2023-04-29T01:12:20;94725.66;;;6.61;100.00
15050;BME280;7622;42.724;23.250;2023-04-29T01:15:00;94722.72;;;6.55;100.00
15050;BME280;7622;42.724;23.250;2023-04-29T01:17:33;94723.53;;;6.55;100.00
15050;BME280;7622;42.724;23.250;2023-04-29T01:20:03;94725.06;;;6.47;100.00
15050;BME280;7622;42.724;23.250;2023-04-29T01:22:33;94728.72;;;6.55;100.00
15050;BME280;7622;42.724;23.250;2023-04-29T01:25:01;94730.22;;;6.69;100.00
15050;BME280;7622;42.724;23.250;2023-04-29T01:27:30;94732.47;;;6.62;100.00
15050;BME280;7622;42.724;23.250;2023-04-29T01:30:09;94731.50;;;6.75;100.00
15050;BME280;7622;42.724;23.250;2023-04-29T01:32:45;94725.41;;;6.64;100.00
15050;BME280;7622;42.724;23.250;2023-04-29T01:35:31;94723.53;;;6.78;100.00
15050;BME280;7622;42.724;23.250;2023-04-29T01:38:12;94713.47;;;6.63;100.00
15050;BME280;7622;42.724;23.250;2023-04-29T01:40:46;94714.50;;;6.83;100.00
15050;BME280;7622;42.724;23.250;2023-04-29T01:43:22;94712.84;;;6.82;100.00
15050;BME280;7622;42.724;23.250;2023-04-29T01:45:51;94711.00;;;6.62;100.00
15050;BME280;7622;42.724;23.250;2023-04-29T01:48:20;94675.94;;;6.48;100.00
15050;BME280;7622;42.724;23.250;2023-04-29T01:50:47;94715.56;;;6.69;100.00
15050;BME280;7622;42.724;23.250;2023-04-29T01:53:14;94721.41;;;6.71;100.00
15050;BME280;7622;42.724;23.250;2023-04-29T01:55:42;94717.41;;;6.79;100.00
15050;BME280;7622;42.724;23.250;2023-04-29T01:58:09;94719.44;;;6.75;100.00
15050;BME280;7622;42.724;23.250;2023-04-29T02:00:36;94715.34;;;6.61;100.00
15050;BME280;7622;42.724;23.250;2023-04-29T02:03:03;94725.88;;;6.58;100.00
15050;BME280;7622;42.724;23.250;2023-04-29T02:05:30;94726.34;;;6.41;100.00
15050;BME280;7622;42.724;23.250;2023-04-29T02:07:58;94729.88;;;6.51;100.00
15050;BME280;7622;42.724;23.250;2023-04-29T02:10:25;94737.34;;;6.43;100.00
15050;BME280;7622;42.724;23.250;2023-04-29T02:12:53;94726.84;;;6.35;100.00
15050;BME280;7622;42.724;23.250;2023-04-29T02:15:20;94723.91;;;6.28;100.00
15050;BME280;7622;42.724;23.250;2023-04-29T02:17:47;94686.00;;;6.18;100.00
15050;BME280;7622;42.724;23.250;2023-04-29T02:20:14;94720.97;;;6.55;100.00
15050;BME280;7622;42.724;23.250;2023-04-29T02:22:41;94709.69;;;6.45;100.00
15050;BME280;7622;42.724;23.250;2023-04-29T02:25:08;94724.72;;;6.40;100.00
15050;BME280;7622;42.724;23.250;2023-04-29T02:27:35;94718.59;;;6.30;100.00
15050;BME280;7622;42.724;23.250;2023-04-29T02:30:04;94718.03;;;6.26;100.00
15050;BME280;7622;42.724;23.250;2023-04-29T02:32:31;94696.53;;;5.92;100.00
15050;BME280;7622;42.724;23.250;2023-04-29T02:34:58;94724.13;;;6.25;100.00
15050;BME280;7622;42.724;23.250;2023-04-29T02:37:25;94720.38;;;5.83;100.00
15050;BME280;7622;42.724;23.250;2023-04-29T02:39:52;94717.78;;;5.72;100.00
15050;BME280;7622;42.724;23.250;2023-04-29T02:42:19;94717.50;;;5.53;100.00
15050;BME280;7622;42.724;23.250;2023-04-29T02:44:46;94696.28;;;5.26;100.00
15050;BME280;7622;42.724;23.250;2023-04-29T02:47:14;94719.97;;;5.31;100.00
15050;BME280;7622;42.724;23.250;2023-04-29T02:49:40;94719.47;;;5.26;100.00
15050;BME280;7622;42.724;23.250;2023-04-29T02:52:07;94722.22;;;5.11;100.00
15050;BME280;7622;42.724;23.250;2023-04-29T02:54:34;94731.09;;;5.31;100.00
15050;BME280;7622;42.724;23.250;2023-04-29T02:57:02;94734.53;;;5.43;100.00
15050;BME280;7622;42.724;23.250;2023-04-29T02:59:29;94740.94;;;5.37;100.00
15050;BME280;7622;42.724;23.250;2023-04-29T03:01:56;94723.28;;;5.20;100.00
15050;BME280;7622;42.724;23.250;2023-04-29T03:04:24;94739.28;;;5.12;100.00
15050;BME280;7622;42.724;23.250;2023-04-29T03:06:50;94740.50;;;4.96;100.00
15050;BME280;7622;42.724;23.250;2023-04-29T03:09:17;94737.16;;;5.06;100.00
15050;BME280;7622;42.724;23.250;2023-04-29T03:11:45;94742.81;;;5.11;100.00
15050;BME280;7622;42.724;23.250;2023-04-29T03:14:12;94711.34;;;4.95;100.00
15050;BME280;7622;42.724;23.250;2023-04-29T03:16:39;94739.28;;;5.12;100.00
15050;BME280;7622;42.724;23.250;2023-04-29T03:19:06;94741.09;;;4.99;100.00
15050;BME280;7622;42.724;23.250;2023-04-29T03:21:34;94745.81;;;5.05;100.00
15050;BME280;7622;42.724;23.250;2023-04-29T03:24:01;94761.31;;;5.17;100.00
15050;BME280;7622;42.724;23.250;2023-04-29T03:26:27;94767.84;;;5.09;100.00
15050;BME280;7622;42.724;23.250;2023-04-29T03:28:54;94760.59;;;5.14;100.00
15050;BME280;7622;42.724;23.250;2023-04-29T03:31:22;94773.84;;;4.97;100.00
15050;BME280;7622;42.724;23.250;2023-04-29T03:33:50;94766.00;;;5.11;100.00
15050;BME280;7622;42.724;23.250;2023-04-29T03:36:17;94766.19;;;5.08;100.00
15050;BME280;7622;42.724;23.250;2023-04-29T03:38:45;94768.81;;;5.20;100.00
15050;BME280;7622;42.724;23.250;2023-04-29T03:41:12;94753.59;;;5.17;100.00
15050;BME280;7622;42.724;23.250;2023-04-29T03:43:40;94761.66;;;5.36;100.00
15050;BME280;7622;42.724;23.250;2023-04-29T03:46:08;94753.72;;;5.39;100.00
15050;BME280;7622;42.724;23.250;2023-04-29T03:48:35;94752.84;;;5.51;100.00
15050;BME280;7622;42.724;23.250;2023-04-29T03:51:02;94757.06;;;5.52;100.00
15050;BME280;7622;42.724;23.250;2023-04-29T03:53:29;94753.78;;;5.61;100.00
15050;BME280;7622;42.724;23.250;2023-04-29T03:55:58;94763.34;;;5.48;100.00
15050;BME280;7622;42.724;23.250;2023-04-29T03:58:25;94757.66;;;5.55;100.00
15050;BME280;7622;42.724;23.250;2023-04-29T04:00:52;94754.81;;;5.82;100.00
15050;BME280;7622;42.724;23.250;2023-04-29T04:03:18;94750.47;;;5.72;100.00
15050;BME280;7622;42.724;23.250;2023-04-29T04:05:47;94768.72;;;5.92;100.00
15050;BME280;7622;42.724;23.250;2023-04-29T04:08:13;94763.00;;;5.76;100.00
15050;BME280;7622;42.724;23.250;2023-04-29T04:10:40;94771.09;;;6.07;100.00
15050;BME280;7622;42.724;23.250;2023-04-29T04:13:08;94774.03;;;5.78;100.00
15050;BME280;7622;42.724;23.250;2023-04-29T04:15:35;94768.00;;;6.02;100.00
15050;BME280;7622;42.724;23.250;2023-04-29T04:18:02;94779.03;;;5.92;100.00
15050;BME280;7622;42.724;23.250;2023-04-29T04:20:29;94771.09;;;6.07;100.00
15050;BME280;7622;42.724;23.250;2023-04-29T04:22:56;94771.34;;;6.26;100.00
15050;BME280;7622;42.724;23.250;2023-04-29T04:25:22;94769.72;;;6.25;100.00
15050;BME280;7622;42.724;23.250;2023-04-29T04:27:49;94771.25;;;6.39;100.00
15050;BME280;7622;42.724;23.250;2023-04-29T04:30:18;94763.63;;;6.15;100.00
15050;BME280;7622;42.724;23.250;2023-04-29T04:32:44;94772.56;;;6.55;100.00
15050;BME280;7622;42.724;23.250;2023-04-29T04:35:11;94775.13;;;6.44;100.00
15050;BME280;7622;42.724;23.250;2023-04-29T04:37:38;94774.44;;;6.53;100.00
15050;BME280;7622;42.724;23.250;2023-04-29T04:40:06;94775.63;;;6.49;100.00
15050;BME280;7622;42.724;23.250;2023-04-29T04:42:33;94777.38;;;6.71;100.00
15050;BME280;7622;42.724;23.250;2023-04-29T04:45:00;94758.50;;;6.82;100.00
15050;BME280;7622;42.724;23.250;2023-04-29T04:47:28;94776.78;;;6.90;100.00
15050;BME280;7622;42.724;23.250;2023-04-29T04:49:55;94767.16;;;7.03;100.00
15050;BME280;7622;42.724;23.250;2023-04-29T04:52:22;94760.78;;;7.07;100.00
15050;BME280;7622;42.724;23.250;2023-04-29T04:54:48;94770.31;;;7.18;100.00
15050;BME280;7622;42.724;23.250;2023-04-29T04:57:15;94766.31;;;7.13;100.00
15050;BME280;7622;42.724;23.250;2023-04-29T04:59:42;94754.72;;;7.40;100.00
15050;BME280;7622;42.724;23.250;2023-04-29T05:02:09;94748.94;;;7.47;100.00
15050;BME280;7622;42.724;23.250;2023-04-29T05:04:37;94748.59;;;7.52;100.00
15050;BME280;7622;42.724;23.250;2023-04-29T05:07:04;94745.16;;;7.63;100.00
15050;BME280;7622;42.724;23.250;2023-04-29T05:09:31;94756.06;;;7.66;100.00
15050;BME280;7622;42.724;23.250;2023-04-29T05:11:58;94746.69;;;7.86;100.00
15050;BME280;7622;42.724;23.250;2023-04-29T05:14:24;94739.28;;;7.81;100.00
15050;BME280;7622;42.724;23.250;2023-04-29T05:16:51;94736.72;;;8.02;100.00
15050;BME280;7622;42.724;23.250;2023-04-29T05:19:18;94737.72;;;7.90;100.00
15050;BME280;7622;42.724;23.250;2023-04-29T05:21:46;94739.78;;;8.07;100.00
15050;BME280;7622;42.724;23.250;2023-04-29T05:24:13;94735.16;;;7.90;100.00
15050;BME280;7622;42.724;23.250;2023-04-29T05:26:40;94728.22;;;8.11;100.00
15050;BME280;7622;42.724;23.250;2023-04-29T05:29:08;94729.03;;;7.91;100.00
15050;BME280;7622;42.724;23.250;2023-04-29T05:31:35;94735.34;;;8.19;100.00
15050;BME280;7622;42.724;23.250;2023-04-29T05:34:03;94732.25;;;8.25;98.00
15050;BME280;7622;42.724;23.250;2023-04-29T05:36:29;94731.66;;;8.63;95.78
15050;BME280;7622;42.724;23.250;2023-04-29T05:38:57;94739.06;;;8.47;97.05
15050;BME280;7622;42.724;23.250;2023-04-29T05:41:24;94735.94;;;8.43;100.00
15050;BME280;7622;42.724;23.250;2023-04-29T05:43:51;94745.63;;;8.51;100.00
15050;BME280;7622;42.724;23.250;2023-04-29T05:46:18;94744.31;;;8.96;100.00
15050;BME280;7622;42.724;23.250;2023-04-29T05:48:47;94748.59;;;9.17;99.72
15050;BME280;7622;42.724;23.250;2023-04-29T05:51:14;94740.47;;;9.50;100.00
15050;BME280;7622;42.724;23.250;2023-04-29T05:53:40;94734.75;;;9.85;87.02
15050;BME280;7622;42.724;23.250;2023-04-29T05:56:08;94752.91;;;10.14;84.29
15050;BME280;7622;42.724;23.250;2023-04-29T05:58:35;94739.34;;;10.49;80.44
15050;BME280;7622;42.724;23.250;2023-04-29T06:01:02;94742.13;;;11.02;77.84
15050;BME280;7622;42.724;23.250;2023-04-29T06:03:29;94748.16;;;11.30;75.86
15050;BME280;7622;42.724;23.250;2023-04-29T06:05:56;94735.19;;;11.65;71.35
15050;BME280;7622;42.724;23.250;2023-04-29T06:08:23;94738.03;;;11.72;70.84
15050;BME280;7622;42.724;23.250;2023-04-29T06:10:50;94729.38;;;12.24;68.39
15050;BME280;7622;42.724;23.250;2023-04-29T06:13:18;94729.47;;;12.92;63.82
15050;BME280;7622;42.724;23.250;2023-04-29T06:15:45;94735.03;;;12.97;62.41
15050;BME280;7622;42.724;23.250;2023-04-29T06:18:12;94738.22;;;13.59;61.08
15050;BME280;7622;42.724;23.250;2023-04-29T06:20:38;94732.03;;;13.60;64.27
15050;BME280;7622;42.724;23.250;2023-04-29T06:23:05;94739.22;;;13.66;60.62
15050;BME280;7622;42.724;23.250;2023-04-29T06:25:34;94732.06;;;14.25;61.63
15050;BME280;7622;42.724;23.250;2023-04-29T06:28:00;94742.16;;;14.85;57.39
15050;BME280;7622;42.724;23.250;2023-04-29T06:30:30;94728.47;;;15.61;55.07
15050;BME280;7622;42.724;23.250;2023-04-29T06:32:56;94732.19;;;15.66;53.36
15050;BME280;7622;42.724;23.250;2023-04-29T06:35:23;94736.03;;;15.48;53.21
15050;BME280;7622;42.724;23.250;2023-04-29T06:37:50;94729.38;;;14.90;60.72
15050;BME280;7622;42.724;23.250;2023-04-29T06:40:17;94718.66;;;14.69;54.92
15050;BME280;7622;42.724;23.250;2023-04-29T06:42:44;94722.13;;;15.55;57.70
15050;BME280;7622;42.724;23.250;2023-04-29T06:45:10;94731.47;;;15.81;54.49
15050;BME280;7622;42.724;23.250;2023-04-29T06:47:39;94729.84;;;16.40;51.21
15050;BME280;7622;42.724;23.250;2023-04-29T06:50:06;94733.06;;;16.73;49.83
15050;BME280;7622;42.724;23.250;2023-04-29T06:52:34;94727.88;;;17.38;49.96
15050;BME280;7622;42.724;23.250;2023-04-29T06:55:01;94723.25;;;17.69;48.27
15050;BME280;7622;42.724;23.250;2023-04-29T06:57:28;94729.84;;;18.23;49.96
15050;BME280;7622;42.724;23.250;2023-04-29T06:59:54;94721.78;;;18.03;48.02
15050;BME280;7622;42.724;23.250;2023-04-29T07:02:21;94720.56;;;16.89;49.01
15050;BME280;7622;42.724;23.250;2023-04-29T07:04:49;94713.78;;;16.66;49.34
15050;BME280;7622;42.724;23.250;2023-04-29T07:07:16;94716.50;;;16.87;49.47
15050;BME280;7622;42.724;23.250;2023-04-29T07:09:43;94722.84;;;16.55;49.92
15050;BME280;7622;42.724;23.250;2023-04-29T07:12:10;94708.78;;;15.65;51.22
15050;BME280;7622;42.724;23.250;2023-04-29T07:14:37;94726.00;;;15.90;50.58
15050;BME280;7622;42.724;23.250;2023-04-29T07:17:05;94717.53;;;16.26;49.50
15050;BME280;7622;42.724;23.250;2023-04-29T07:19:31;94711.59;;;16.32;49.09
15050;BME280;7622;42.724;23.250;2023-04-29T07:22:00;94707.63;;;16.88;47.85
15050;BME280;7622;42.724;23.250;2023-04-29T07:24:27;94714.69;;;17.02;47.60
15050;BME280;7622;42.724;23.250;2023-04-29T07:26:53;94704.47;;;16.40;48.57
15050;BME280;7622;42.724;23.250;2023-04-29T07:29:20;94714.44;;;16.45;48.31
15050;BME280;7622;42.724;23.250;2023-04-29T07:31:47;94715.22;;;16.31;48.64
15050;BME280;7622;42.724;23.250;2023-04-29T07:34:14;94711.72;;;16.15;49.36
15050;BME280;7622;42.724;23.250;2023-04-29T07:36:41;94710.88;;;16.38;49.04
15050;BME280;7622;42.724;23.250;2023-04-29T07:39:09;94714.06;;;16.48;48.52
15050;BME280;7622;42.724;23.250;2023-04-29T07:41:36;94711.03;;;16.59;48.10
15050;BME280;7622;42.724;23.250;2023-04-29T07:44:03;94706.63;;;16.74;47.13
15050;BME280;7622;42.724;23.250;2023-04-29T07:46:30;94706.63;;;17.04;47.12
15050;BME280;7622;42.724;23.250;2023-04-29T07:48:57;94711.78;;;16.97;47.29
15050;BME280;7622;42.724;23.250;2023-04-29T07:51:24;94701.31;;;16.45;48.40
15050;BME280;7622;42.724;23.250;2023-04-29T07:53:53;94700.88;;;16.56;48.12
15050;BME280;7622;42.724;23.250;2023-04-29T07:56:21;94692.41;;;17.27;46.23
15050;BME280;7622;42.724;23.250;2023-04-29T07:58:48;94684.66;;;17.55;45.24
15050;BME280;7622;42.724;23.250;2023-04-29T08:01:14;94687.03;;;17.86;44.77
15050;BME280;7622;42.724;23.250;2023-04-29T08:03:42;94682.50;;;17.80;44.51
15050;BME280;7622;42.724;23.250;2023-04-29T08:06:08;94688.59;;;18.23;44.08
15050;BME280;7622;42.724;23.250;2023-04-29T08:08:35;94687.69;;;18.59;43.51
15050;BME280;7622;42.724;23.250;2023-04-29T08:11:02;94681.78;;;18.35;43.33
15050;BME280;7622;42.724;23.250;2023-04-29T08:13:30;94681.53;;;18.02;44.44
15050;BME280;7622;42.724;23.250;2023-04-29T08:15:57;94679.19;;;18.14;45.23
15050;BME280;7622;42.724;23.250;2023-04-29T08:18:24;94681.31;;;18.81;45.11
15050;BME280;7622;42.724;23.250;2023-04-29T08:20:50;94676.28;;;19.14;43.56
15050;BME280;7622;42.724;23.250;2023-04-29T08:23:17;94670.50;;;19.45;43.90
15050;BME280;7622;42.724;23.250;2023-04-29T08:25:44;94668.06;;;19.97;41.80
15050;BME280;7622;42.724;23.250;2023-04-29T08:28:11;94669.09;;;20.16;41.18
15050;BME280;7622;42.724;23.250;2023-04-29T08:30:39;94662.41;;;20.33;40.84
15050;BME280;7622;42.724;23.250;2023-04-29T08:33:07;94662.97;;;20.81;40.33
15050;BME280;7622;42.724;23.250;2023-04-29T08:35:34;94663.59;;;20.83;41.38
15050;BME280;7622;42.724;23.250;2023-04-29T08:38:03;94658.31;;;19.98;41.62
15050;BME280;7622;42.724;23.250;2023-04-29T08:40:33;94655.69;;;20.31;41.44
15050;BME280;7622;42.724;23.250;2023-04-29T08:43:00;94662.59;;;20.19;41.94
15050;BME280;7622;42.724;23.250;2023-04-29T08:45:28;94660.56;;;20.73;41.04
15050;BME280;7622;42.724;23.250;2023-04-29T08:47:57;94656.97;;;21.32;38.98
15050;BME280;7622;42.724;23.250;2023-04-29T08:50:25;94657.28;;;21.55;39.21
15050;BME280;7622;42.724;23.250;2023-04-29T08:52:54;94655.63;;;21.99;37.62
15050;BME280;7622;42.724;23.250;2023-04-29T08:55:20;94652.13;;;21.29;38.90
15050;BME280;7622;42.724;23.250;2023-04-29T08:57:49;94655.19;;;21.71;38.71
15050;BME280;7622;42.724;23.250;2023-04-29T09:00:16;94638.22;;;21.85;38.42
15050;BME280;7622;42.724;23.250;2023-04-29T09:02:46;94650.31;;;21.10;40.01
15050;BME280;7622;42.724;23.250;2023-04-29T09:05:16;94642.75;;;21.33;40.29
15050;BME280;7622;42.724;23.250;2023-04-29T09:07:43;94645.16;;;20.44;41.30
15050;BME280;7622;42.724;23.250;2023-04-29T09:10:11;94646.13;;;19.90;41.95
15050;BME280;7622;42.724;23.250;2023-04-29T09:12:39;94641.41;;;19.59;42.86
15050;BME280;7622;42.724;23.250;2023-04-29T09:15:07;94595.84;;;19.18;42.95
15050;BME280;7622;42.724;23.250;2023-04-29T09:17:41;94645.72;;;20.20;42.27
15050;BME280;7622;42.724;23.250;2023-04-29T09:20:28;94645.78;;;20.46;41.47
15050;BME280;7622;42.724;23.250;2023-04-29T09:22:57;94639.69;;;20.26;40.91
15050;BME280;7622;42.724;23.250;2023-04-29T09:25:24;94638.63;;;20.27;41.48
15050;BME280;7622;42.724;23.250;2023-04-29T09:27:51;94635.88;;;21.19;39.88
15050;BME280;7622;42.724;23.250;2023-04-29T09:30:18;94636.69;;;21.13;39.64
15050;BME280;7622;42.724;23.250;2023-04-29T09:33:03;94626.22;;;21.44;39.03
15050;BME280;7622;42.724;23.250;2023-04-29T09:35:32;94613.97;;;21.88;37.80
15050;BME280;7622;42.724;23.250;2023-04-29T09:38:10;94605.97;;;22.01;38.02
15050;BME280;7622;42.724;23.250;2023-04-29T09:40:38;94624.06;;;22.04;37.27
15050;BME280;7622;42.724;23.250;2023-04-29T09:43:13;94625.91;;;22.28;37.19
15050;BME280;7622;42.724;23.250;2023-04-29T09:45:42;94622.50;;;22.46;36.75
15050;BME280;7622;42.724;23.250;2023-04-29T09:48:10;94622.00;;;22.06;36.92
15050;BME280;7622;42.724;23.250;2023-04-29T09:50:39;94608.41;;;19.96;39.19
15050;BME280;7622;42.724;23.250;2023-04-29T09:53:08;94610.44;;;20.47;38.99
15050;BME280;7622;42.724;23.250;2023-04-29T09:55:36;94611.91;;;21.14;38.73
15050;BME280;7622;42.724;23.250;2023-04-29T09:58:03;94598.38;;;21.42;37.89
15050;BME280;7622;42.724;23.250;2023-04-29T10:00:32;94595.66;;;21.10;37.09
15050;BME280;7622;42.724;23.250;2023-04-29T10:03:00;94592.50;;;20.75;37.50
15050;BME280;7622;42.724;23.250;2023-04-29T10:05:28;94590.94;;;20.55;38.08
15050;BME280;7622;42.724;23.250;2023-04-29T10:07:58;94589.75;;;20.37;38.72
15050;BME280;7622;42.724;23.250;2023-04-29T10:10:26;94566.03;;;19.98;39.46
15050;BME280;7622;42.724;23.250;2023-04-29T10:12:54;94588.94;;;19.84;40.00
15050;BME280;7622;42.724;23.250;2023-04-29T10:15:25;94589.13;;;19.83;40.21
15050;BME280;7622;42.724;23.250;2023-04-29T10:17:57;94585.69;;;19.69;40.33
15050;BME280;7622;42.724;23.250;2023-04-29T10:20:26;94580.94;;;19.45;39.74
15050;BME280;7622;42.724;23.250;2023-04-29T10:22:54;94578.69;;;19.35;39.65
15050;BME280;7622;42.724;23.250;2023-04-29T10:25:25;94579.09;;;19.39;39.32
15050;BME280;7622;42.724;23.250;2023-04-29T10:27:54;94575.41;;;19.20;39.17
15050;BME280;7622;42.724;23.250;2023-04-29T10:30:21;94570.53;;;19.17;39.09
15050;BME280;7622;42.724;23.250;2023-04-29T10:32:49;94564.88;;;19.26;40.51
15050;BME280;7622;42.724;23.250;2023-04-29T10:35:17;94566.84;;;19.05;41.45
15050;BME280;7622;42.724;23.250;2023-04-29T10:37:46;94567.03;;;19.03;41.78
15050;BME280;7622;42.724;23.250;2023-04-29T10:40:15;94562.31;;;18.85;42.10
15050;BME280;7622;42.724;23.250;2023-04-29T10:42:48;94568.16;;;19.42;41.24
15050;BME280;7622;42.724;23.250;2023-04-29T10:45:25;94560.53;;;19.66;40.83
15050;BME280;7622;42.724;23.250;2023-04-29T10:48:12;94560.84;;;19.31;41.04
15050;BME280;7622;42.724;23.250;2023-04-29T10:53:23;94557.06;;;19.66;39.29
15050;BME280;7622;42.724;23.250;2023-04-29T10:55:53;94552.00;;;19.78;39.29
15050;BME280;7622;42.724;23.250;2023-04-29T10:58:43;94545.91;;;19.64;39.89
15050;BME280;7622;42.724;23.250;2023-04-29T11:01:11;94548.16;;;19.54;38.87
15050;BME280;7622;42.724;23.250;2023-04-29T11:06:24;94556.38;;;19.24;37.13
15050;BME280;7622;42.724;23.250;2023-04-29T11:09:02;94552.47;;;19.01;37.51
15050;BME280;7622;42.724;23.250;2023-04-29T11:11:55;94550.75;;;18.80;37.39
15050;BME280;7622;42.724;23.250;2023-04-29T11:14:26;94554.78;;;18.76;36.41
15050;BME280;7622;42.724;23.250;2023-04-29T11:16:56;94553.56;;;18.72;36.58
15050;BME280;7622;42.724;23.250;2023-04-29T11:19:25;94549.97;;;18.86;36.60
15050;BME280;7622;42.724;23.250;2023-04-29T11:22:11;94546.94;;;18.89;36.09
15050;BME280;7622;42.724;23.250;2023-04-29T11:24:48;94544.88;;;18.78;35.93
15050;BME280;7622;42.724;23.250;2023-04-29T11:27:16;94546.03;;;18.69;37.54
15050;BME280;7622;42.724;23.250;2023-04-29T11:29:46;94553.59;;;18.44;36.90
15050;BME280;7622;42.724;23.250;2023-04-29T11:32:12;94552.88;;;18.57;36.05
15050;BME280;7622;42.724;23.250;2023-04-29T11:34:39;94492.16;;;18.17;36.88
15050;BME280;7622;42.724;23.250;2023-04-29T11:37:06;94538.13;;;18.62;36.32
15050;BME280;7622;42.724;23.250;2023-04-29T11:39:34;94534.69;;;18.68;35.42
15050;BME280;7622;42.724;23.250;2023-04-29T11:42:04;94547.63;;;18.57;34.92
15050;BME280;7622;42.724;23.250;2023-04-29T11:44:33;94550.44;;;18.27;36.20
15050;BME280;7622;42.724;23.250;2023-04-29T11:47:04;94542.34;;;17.94;36.09
15050;BME280;7622;42.724;23.250;2023-04-29T11:49:32;94550.53;;;18.13;36.35
15050;BME280;7622;42.724;23.250;2023-04-29T11:51:59;94548.69;;;18.06;37.88
15050;BME280;7622;42.724;23.250;2023-04-29T11:54:26;94535.13;;;18.03;38.35
15050;BME280;7622;42.724;23.250;2023-04-29T11:56:53;94539.63;;;18.09;38.65
15050;BME280;7622;42.724;23.250;2023-04-29T11:59:21;94543.69;;;18.12;38.95
15050;BME280;7622;42.724;23.250;2023-04-29T12:01:48;94535.66;;;18.26;39.26
15050;BME280;7622;42.724;23.250;2023-04-29T12:04:16;94531.22;;;18.27;39.01
15050;BME280;7622;42.724;23.250;2023-04-29T12:06:43;94536.19;;;18.43;38.45
15050;BME280;7622;42.724;23.250;2023-04-29T12:09:10;94527.25;;;18.37;38.16
15050;BME280;7622;42.724;23.250;2023-04-29T12:11:39;94527.31;;;18.50;41.62
15050;BME280;7622;42.724;23.250;2023-04-29T12:14:06;94527.69;;;18.47;40.10
15050;BME280;7622;42.724;23.250;2023-04-29T12:16:33;94521.53;;;18.62;38.09
15050;BME280;7622;42.724;23.250;2023-04-29T12:19:02;94530.47;;;18.39;38.61
15050;BME280;7622;42.724;23.250;2023-04-29T12:21:32;94529.72;;;18.45;37.76
15050;BME280;7622;42.724;23.250;2023-04-29T12:24:01;94520.28;;;18.23;39.09
15050;BME280;7622;42.724;23.250;2023-04-29T12:26:29;94513.22;;;18.24;39.09
15050;BME280;7622;42.724;23.250;2023-04-29T12:28:58;94513.78;;;18.19;39.45
15050;BME280;7622;42.724;23.250;2023-04-29T12:31:31;94515.09;;;18.36;39.36
15050;BME280;7622;42.724;23.250;2023-04-29T12:33:59;94509.78;;;18.23;38.17
15050;BME280;7622;42.724;23.250;2023-04-29T12:36:27;94511.75;;;18.15;38.69
15050;BME280;7622;42.724;23.250;2023-04-29T12:38:55;94505.13;;;17.91;38.59
15050;BME280;7622;42.724;23.250;2023-04-29T12:41:35;94503.50;;;18.24;38.20
15050;BME280;7622;42.724;23.250;2023-04-29T12:44:02;94497.84;;;18.27;38.40
15050;BME280;7622;42.724;23.250;2023-04-29T12:46:33;94479.00;;;18.17;39.44
15050;BME280;7622;42.724;23.250;2023-04-29T12:49:01;94510.22;;;18.33;39.21
15050;BME280;7622;42.724;23.250;2023-04-29T12:51:28;94503.44;;;18.45;38.24
15050;BME280;7622;42.724;23.250;2023-04-29T12:53:58;94496.94;;;18.48;38.25
15050;BME280;7622;42.724;23.250;2023-04-29T12:56:25;94495.94;;;18.49;39.62
15050;BME280;7622;42.724;23.250;2023-04-29T12:58:52;94504.03;;;18.54;39.18
15050;BME280;7622;42.724;23.250;2023-04-29T13:01:21;94488.19;;;18.34;39.44
15050;BME280;7622;42.724;23.250;2023-04-29T13:03:50;94492.09;;;18.45;39.74
15050;BME280;7622;42.724;23.250;2023-04-29T13:06:18;94499.66;;;18.61;39.74
15050;BME280;7622;42.724;23.250;2023-04-29T13:08:45;94487.59;;;18.73;40.40
15050;BME280;7622;42.724;23.250;2023-04-29T13:11:13;94487.84;;;18.98;40.00